CheckWX is a tool to help pilots better visualize weather data.  It is not intended as a substitute for an official pre-flight weather briefing.

12:28:32 UTC

KOGB METAR
Orangeburg Municipal Airport
Orangeburg, South Carolina, USA
Current

25 mins ago

KOGB 221204Z AUTO 36004KT 4SM BR OVC003 18/17 A3015 RMK AO2 T01780172
Observed
Feb-22 @ 12:04 UTC
Wind
  • 360° at 4 KTS
Visibility
4 SM
Flight Rules
LIFR
Conditions
Mist
Cloud Levels
  • Overcast at 300' AGL
Temperature
18°C / 64°F
Dewpoint
17°C / 63°F
Humidity
94%
Altimeter
30.15" Hg
Pressure
1021.02 hPa
Previous

36 mins ago

KOGB 221153Z AUTO 36006KT 2SM BR OVC003 18/17 A3015 RMK AO2 SLP207 60001 70001 T01780167 10178 20156 53019
Observed
Feb-22 @ 11:53 UTC
Wind
  • 360° at 6 KTS
Visibility
2 SM
Flight Rules
LIFR
Conditions
Mist
Cloud Levels
  • Overcast at 300' AGL
Temperature
18°C / 64°F
Dewpoint
17°C / 63°F
Humidity
94%
Altimeter
30.15" Hg
Pressure
1020.7 hPa
Previous

49 mins ago

KOGB 221140Z AUTO 22003KT 2 1/2SM BR OVC004 18/17 A3013 RMK AO2 T01780167
Observed
Feb-22 @ 11:40 UTC
Wind
  • 220° at 3 KTS
Visibility
2 1/2 SM
Flight Rules
LIFR
Conditions
Mist
Cloud Levels
  • Overcast at 400' AGL
Temperature
18°C / 64°F
Dewpoint
17°C / 63°F
Humidity
94%
Altimeter
30.13" Hg
Pressure
1020.32 hPa